Time;durP1;ratioP1;P1;durP2;ratioP2;P2;SDS_P1;SDS_P2;PMS_P1;PMS_P2;Temp;Humidity;BMP_temperature;BMP_pressure;BME280_temperature;BME280_humidity;BME280_pressure;Samples;Min_cycle;Max_cycle;Signal;HPM_P1;HPM_P2
2021/05/25 00:00:31;;;;;;;6.07;2.50;;;;;;;;;;4906945;29;20083;-61
2021/05/25 00:02:58;;;;;;;6.10;2.60;;;;;;;;;;4909169;29;20144;-59
2021/05/25 00:05:26;;;;;;;8.95;2.42;;;;;;;;;;4914281;29;20040;-61
2021/05/25 00:07:54;;;;;;;7.38;2.80;;;;;;;;;;4909276;29;20072;-62
2021/05/25 00:10:21;;;;;;;6.72;2.70;;;;;;;;;;4902800;29;20103;-61
2021/05/25 00:12:47;;;;;;;11.68;3.33;;;;;;;;;;4924522;29;20115;-61
2021/05/25 00:15:15;;;;;;;6.20;2.88;;;;;;;;;;4904862;29;20043;-60
2021/05/25 00:17:41;;;;;;;5.88;2.83;;;;;;;;;;4900307;29;20091;-59
2021/05/25 00:20:08;;;;;;;5.63;2.90;;;;;;;;;;4919492;29;20048;-59
2021/05/25 00:22:36;;;;;;;4.97;2.45;;;;;;;;;;4907666;29;20135;-60
2021/05/25 00:25:02;;;;;;;6.50;2.85;;;;;;;;;;4921825;29;20091;-58
2021/05/25 00:27:28;;;;;;;6.05;2.70;;;;;;;;;;4924842;29;20039;-59
2021/05/25 00:29:54;;;;;;;7.03;3.03;;;;;;;;;;4909206;29;20099;-58
2021/05/25 00:32:20;;;;;;;6.25;3.00;;;;;;;;;;4921787;29;20099;-58
2021/05/25 00:34:46;;;;;;;5.80;2.90;;;;;;;;;;4907949;29;20036;-60
2021/05/25 00:37:12;;;;;;;8.45;3.17;;;;;;;;;;4916831;29;20091;-55
2021/05/25 00:39:39;;;;;;;7.15;3.00;;;;;;;;;;4920956;29;21431;-59
2021/05/25 00:42:06;;;;;;;6.03;2.78;;;;;;;;;;4905742;29;20070;-56
2021/05/25 00:44:32;;;;;;;7.30;3.10;;;;;;;;;;4908653;29;20095;-57
2021/05/25 00:46:58;;;;;;;7.65;3.08;;;;;;;;;;4921474;29;20040;-56
2021/05/25 00:49:24;;;;;;;6.63;3.20;;;;;;;;;;4909574;29;20100;-59
2021/05/25 00:51:52;;;;;;;7.25;3.08;;;;;;;;;;4905068;29;20052;-57
2021/05/25 00:54:18;;;;;;;7.53;3.42;;;;;;;;;;4909227;29;20125;-59
2021/05/25 00:56:45;;;;;;;6.35;3.17;;;;;;;;;;4906217;29;20048;-58
2021/05/25 00:59:11;;;;;;;7.45;3.28;;;;;;;;;;4908470;29;20043;-58
2021/05/25 01:01:37;;;;;;;6.75;3.33;;;;;;;;;;4922656;29;20100;-56
2021/05/25 01:04:04;;;;;;;7.15;3.25;;;;;;;;;;4921507;29;20139;-57
2021/05/25 01:06:30;;;;;;;12.00;3.45;;;;;;;;;;4895984;29;20052;-57
2021/05/25 01:08:59;;;;;;;7.60;3.72;;;;;;;;;;4907498;29;20135;-56
2021/05/25 01:11:26;;;;;;;9.52;3.60;;;;;;;;;;4907424;29;20171;-58
2021/05/25 01:13:55;;;;;;;6.45;3.38;;;;;;;;;;4906115;29;20040;-56
2021/05/25 01:16:23;;;;;;;6.60;3.25;;;;;;;;;;4916947;29;20079;-57
2021/05/25 01:18:49;;;;;;;7.40;3.20;;;;;;;;;;4914457;29;20078;-58
2021/05/25 01:21:15;;;;;;;8.18;3.60;;;;;;;;;;4925405;29;20060;-57
2021/05/25 01:23:42;;;;;;;6.22;3.13;;;;;;;;;;4904045;29;20092;-55
2021/05/25 01:26:08;;;;;;;5.85;2.72;;;;;;;;;;4906802;29;20040;-58
2021/05/25 01:28:35;;;;;;;10.70;2.60;;;;;;;;;;4922904;29;20056;-58
2021/05/25 01:31:01;;;;;;;5.80;2.47;;;;;;;;;;4925199;29;20051;-57
2021/05/25 01:33:29;;;;;;;5.63;2.22;;;;;;;;;;4916986;29;20123;-61
2021/05/25 01:35:56;;;;;;;7.70;2.58;;;;;;;;;;4920400;29;20055;-60
2021/05/25 01:38:23;;;;;;;6.63;2.38;;;;;;;;;;4892816;29;20048;-60
2021/05/25 01:40:51;;;;;;;5.78;2.15;;;;;;;;;;4907603;29;20047;-60
2021/05/25 01:43:17;;;;;;;;;;;;;;;;;;4913645;29;20036;-58
2021/05/25 01:45:43;;;;;;;6.05;1.98;;;;;;;;;;4923766;29;19931;-58
2021/05/25 01:48:10;;;;;;;5.88;2.15;;;;;;;;;;4920766;29;20160;-59
2021/05/25 01:50:39;;;;;;;5.25;1.98;;;;;;;;;;4907799;29;20043;-57
2021/05/25 01:53:06;;;;;;;5.20;2.08;;;;;;;;;;4907407;29;20068;-58
2021/05/25 01:55:34;;;;;;;5.38;1.90;;;;;;;;;;4905557;29;20119;-57
2021/05/25 01:58:02;;;;;;;4.10;1.80;;;;;;;;;;4927051;29;20130;-59
2021/05/25 02:00:29;;;;;;;3.88;1.75;;;;;;;;;;4905207;29;20092;-56
2021/05/25 02:02:55;;;;;;;5.03;1.95;;;;;;;;;;4903190;29;20039;-59
2021/05/25 02:05:21;;;;;;;4.50;1.80;;;;;;;;;;4905596;29;20055;-59
2021/05/25 02:07:48;;;;;;;4.07;1.92;;;;;;;;;;4911300;29;20075;-58
2021/05/25 02:10:24;;;;;;;6.38;2.40;;;;;;;;;;4923264;29;20052;-61
2021/05/25 02:12:50;;;;;;;4.90;1.83;;;;;;;;;;4910906;29;20044;-60
2021/05/25 02:15:18;;;;;;;5.63;1.55;;;;;;;;;;4920817;29;20047;-58
2021/05/25 02:17:44;;;;;;;4.22;1.98;;;;;;;;;;4924730;29;20048;-56
2021/05/25 02:20:11;;;;;;;4.82;1.55;;;;;;;;;;4907557;29;20036;-60
2021/05/25 02:22:37;;;;;;;3.90;1.73;;;;;;;;;;4908097;29;20032;-60
2021/05/25 02:25:04;;;;;;;5.68;1.85;;;;;;;;;;4905760;29;20059;-58
2021/05/25 02:27:30;;;;;;;4.95;1.40;;;;;;;;;;4912065;29;20044;-59
2021/05/25 02:29:58;;;;;;;3.90;1.40;;;;;;;;;;4906820;29;20044;-58
2021/05/25 02:32:25;;;;;;;3.53;1.30;;;;;;;;;;4910047;29;20110;-57
2021/05/25 02:34:51;;;;;;;3.25;1.40;;;;;;;;;;4927379;29;20048;-57
2021/05/25 02:37:18;;;;;;;11.48;1.65;;;;;;;;;;4907495;29;20036;-56
2021/05/25 02:39:43;;;;;;;3.97;1.60;;;;;;;;;;4910342;29;20048;-57
2021/05/25 02:42:10;;;;;;;4.25;1.27;;;;;;;;;;4923543;29;20044;-56
2021/05/25 02:44:36;;;;;;;3.65;1.30;;;;;;;;;;4925603;29;20036;-56
2021/05/25 02:47:02;;;;;;;2.22;1.20;;;;;;;;;;4905086;29;20054;-60
2021/05/25 02:49:29;;;;;;;4.80;1.38;;;;;;;;;;4921518;29;20056;-59
2021/05/25 02:51:56;;;;;;;4.13;1.45;;;;;;;;;;4898649;29;20106;-56
2021/05/25 02:54:22;;;;;;;1.63;1.02;;;;;;;;;;4909926;29;20111;-60
2021/05/25 02:56:48;;;;;;;3.60;1.33;;;;;;;;;;4908067;29;20055;-60
2021/05/25 02:59:14;;;;;;;4.25;1.50;;;;;;;;;;4908931;29;20059;-58
2021/05/25 03:01:40;;;;;;;4.75;1.42;;;;;;;;;;4922448;29;20059;-59
2021/05/25 03:04:06;;;;;;;4.15;1.48;;;;;;;;;;4909281;29;20142;-57
2021/05/25 03:06:33;;;;;;;4.40;1.48;;;;;;;;;;4907666;29;20035;-57
2021/05/25 03:08:59;;;;;;;3.75;1.50;;;;;;;;;;4909956;29;20060;-57
2021/05/25 03:11:27;;;;;;;4.00;1.55;;;;;;;;;;4907604;29;20050;-56
2021/05/25 03:13:53;;;;;;;5.53;1.67;;;;;;;;;;4898432;29;20044;-57
2021/05/25 03:16:19;;;;;;;2.85;1.33;;;;;;;;;;4926794;29;20048;-59
2021/05/25 03:18:45;;;;;;;3.00;1.13;;;;;;;;;;4903788;29;20047;-61
2021/05/25 03:21:12;;;;;;;3.55;1.25;;;;;;;;;;4924279;29;20048;-57
2021/05/25 03:23:38;;;;;;;5.45;1.60;;;;;;;;;;4914548;29;20039;-56
2021/05/25 03:26:05;;;;;;;4.35;1.38;;;;;;;;;;4899666;29;20064;-59
2021/05/25 03:28:30;;;;;;;5.13;1.50;;;;;;;;;;4898374;29;20099;-58
2021/05/25 03:30:56;;;;;;;4.45;1.50;;;;;;;;;;4925863;29;20052;-57
2021/05/25 03:33:23;;;;;;;4.47;1.60;;;;;;;;;;4904931;29;20036;-55
2021/05/25 03:35:49;;;;;;;3.65;1.45;;;;;;;;;;4924772;29;20048;-59
2021/05/25 03:38:15;;;;;;;4.30;1.63;;;;;;;;;;4905252;29;20100;-57
2021/05/25 03:40:43;;;;;;;6.80;1.50;;;;;;;;;;4908333;29;20100;-59
2021/05/25 03:43:09;;;;;;;5.40;1.42;;;;;;;;;;4906949;29;20051;-57
2021/05/25 03:45:35;;;;;;;7.40;1.90;;;;;;;;;;4908292;29;20130;-58
2021/05/25 03:48:01;;;;;;;4.13;1.40;;;;;;;;;;4922012;29;20052;-59
2021/05/25 03:50:27;;;;;;;7.53;1.83;;;;;;;;;;4907391;29;20056;-58
2021/05/25 03:52:55;;;;;;;4.35;1.60;;;;;;;;;;4922271;29;20036;-57
2021/05/25 03:55:29;;;;;;;9.02;1.83;;;;;;;;;;4907062;29;20098;-56
2021/05/25 04:00:40;;;;;;;3.72;1.42;;;;;;;;;;4899770;29;20088;-56
2021/05/25 04:03:06;;;;;;;4.80;1.58;;;;;;;;;;4907213;29;20163;-56
2021/05/25 04:05:32;;;;;;;6.05;1.92;;;;;;;;;;4904285;29;20043;-61
2021/05/25 04:07:58;;;;;;;5.00;1.63;;;;;;;;;;4925706;29;20052;-54
2021/05/25 04:10:24;;;;;;;4.45;1.67;;;;;;;;;;4916708;29;20135;-58
2021/05/25 04:12:50;;;;;;;6.85;1.58;;;;;;;;;;4906052;29;20051;-56
2021/05/25 04:15:17;;;;;;;6.10;1.67;;;;;;;;;;4914088;29;20039;-55
2021/05/25 04:17:43;;;;;;;4.50;1.40;;;;;;;;;;4909173;29;20057;-56
2021/05/25 04:20:11;;;;;;;2.75;1.40;;;;;;;;;;4904641;29;20051;-59
2021/05/25 04:22:37;;;;;;;5.47;2.10;;;;;;;;;;4908238;29;20048;-57
2021/05/25 04:25:03;;;;;;;5.95;1.73;;;;;;;;;;4910888;29;20046;-60
2021/05/25 04:27:29;;;;;;;4.97;1.67;;;;;;;;;;4925033;29;20043;-58
2021/05/25 04:29:55;;;;;;;4.15;1.73;;;;;;;;;;4906040;29;20032;-57
2021/05/25 04:32:22;;;;;;;5.55;1.88;;;;;;;;;;4924232;29;20201;-55
2021/05/25 04:34:48;;;;;;;5.53;2.10;;;;;;;;;;4906194;29;20047;-55
2021/05/25 04:37:14;;;;;;;4.30;1.85;;;;;;;;;;4909187;29;20043;-58
2021/05/25 04:39:40;;;;;;;6.07;1.95;;;;;;;;;;4899116;29;20132;-60
2021/05/25 04:42:06;;;;;;;4.85;1.85;;;;;;;;;;4906130;29;20058;-58
2021/05/25 04:44:32;;;;;;;5.22;1.70;;;;;;;;;;4908415;29;20059;-56
2021/05/25 04:46:58;;;;;;;4.50;1.85;;;;;;;;;;4922833;29;20111;-58
2021/05/25 04:49:25;;;;;;;5.93;1.85;;;;;;;;;;4908631;29;20044;-55
2021/05/25 04:51:51;;;;;;;6.28;1.55;;;;;;;;;;4903621;29;20048;-55
2021/05/25 04:54:17;;;;;;;5.07;2.10;;;;;;;;;;4908703;29;20040;-58
2021/05/25 04:56:44;;;;;;;6.15;1.65;;;;;;;;;;4922070;29;20126;-58
2021/05/25 04:59:10;;;;;;;6.95;2.22;;;;;;;;;;4924604;29;20059;-59
2021/05/25 05:01:36;;;;;;;5.80;1.92;;;;;;;;;;4906023;29;20048;-60
2021/05/25 05:04:02;;;;;;;6.75;2.05;;;;;;;;;;4907895;29;20060;-54
2021/05/25 05:06:29;;;;;;;8.60;3.03;;;;;;;;;;4897326;29;20051;-59
2021/05/25 05:08:55;;;;;;;11.77;4.43;;;;;;;;;;4925083;29;20051;-59
2021/05/25 05:11:21;;;;;;;8.82;2.75;;;;;;;;;;4903593;29;20136;-59
2021/05/25 05:13:47;;;;;;;6.28;2.58;;;;;;;;;;4920740;29;20040;-58
2021/05/25 05:16:13;;;;;;;6.20;2.10;;;;;;;;;;4922872;29;20059;-60
2021/05/25 05:18:39;;;;;;;5.28;2.33;;;;;;;;;;4911396;29;20039;-60
2021/05/25 05:21:05;;;;;;;7.40;2.40;;;;;;;;;;4932276;29;20047;-59
2021/05/25 05:23:32;;;;;;;10.02;2.42;;;;;;;;;;4922615;29;20067;-58
2021/05/25 05:25:58;;;;;;;5.03;2.05;;;;;;;;;;4909551;29;20063;-54
2021/05/25 05:28:24;;;;;;;3.83;1.92;;;;;;;;;;4897890;29;20104;-59
2021/05/25 05:30:50;;;;;;;6.85;2.30;;;;;;;;;;4932239;29;20043;-60
2021/05/25 05:33:16;;;;;;;7.93;2.78;;;;;;;;;;4905031;29;20061;-56
2021/05/25 05:35:42;;;;;;;5.72;2.53;;;;;;;;;;4926072;29;20083;-58
2021/05/25 05:38:10;;;;;;;4.63;2.25;;;;;;;;;;4904906;29;20040;-58
2021/05/25 05:40:40;;;;;;;7.03;2.28;;;;;;;;;;4931874;28;20032;-59
2021/05/25 05:43:07;;;;;;;5.95;2.50;;;;;;;;;;4905332;29;20059;-60
2021/05/25 05:45:33;;;;;;;7.28;3.30;;;;;;;;;;4909352;29;20129;-59
2021/05/25 05:47:59;;;;;;;9.60;2.88;;;;;;;;;;4926709;29;20044;-64
2021/05/25 05:50:25;;;;;;;6.65;3.20;;;;;;;;;;4904865;29;20416;-57
2021/05/25 05:52:51;;;;;;;5.13;2.67;;;;;;;;;;4929243;29;20063;-57
2021/05/25 05:55:18;;;;;;;12.15;4.60;;;;;;;;;;4909936;29;20036;-60
2021/05/25 05:57:47;;;;;;;11.65;4.95;;;;;;;;;;4913482;29;20080;-57
2021/05/25 06:00:14;;;;;;;7.72;3.03;;;;;;;;;;4920706;29;20048;-59
2021/05/25 06:02:40;;;;;;;5.97;3.15;;;;;;;;;;4931893;28;20052;-57
2021/05/25 06:05:07;;;;;;;7.57;3.17;;;;;;;;;;4907262;29;20067;-59
2021/05/25 06:07:33;;;;;;;6.72;3.30;;;;;;;;;;4910567;29;20080;-58
2021/05/25 06:10:01;;;;;;;7.15;3.35;;;;;;;;;;4905256;29;20040;-61
2021/05/25 06:12:27;;;;;;;9.30;3.60;;;;;;;;;;4928525;29;20069;-59
2021/05/25 06:14:55;;;;;;;6.65;3.47;;;;;;;;;;4904361;29;20063;-59
2021/05/25 06:17:21;;;;;;;6.45;3.30;;;;;;;;;;4910184;29;20055;-58
2021/05/25 06:19:48;;;;;;;7.13;3.75;;;;;;;;;;4900226;29;20044;-56
2021/05/25 06:22:14;;;;;;;7.95;3.28;;;;;;;;;;4909732;29;20040;-58
2021/05/25 06:24:40;;;;;;;10.25;3.55;;;;;;;;;;4918588;29;20047;-55
2021/05/25 06:27:06;;;;;;;5.28;2.80;;;;;;;;;;4898370;29;20048;-58
2021/05/25 06:29:33;;;;;;;7.20;3.67;;;;;;;;;;4925284;29;20047;-59
2021/05/25 06:32:01;;;;;;;9.73;3.67;;;;;;;;;;4911759;29;20044;-60
2021/05/25 06:34:27;;;;;;;6.05;3.58;;;;;;;;;;4907466;29;20043;-56
2021/05/25 06:36:53;;;;;;;10.07;4.03;;;;;;;;;;4925228;29;20054;-58
2021/05/25 06:39:19;;;;;;;11.07;4.38;;;;;;;;;;4926743;29;20040;-55
2021/05/25 06:41:47;;;;;;;12.57;4.73;;;;;;;;;;4900152;29;20040;-56
2021/05/25 06:44:13;;;;;;;8.13;4.38;;;;;;;;;;4924656;29;20293;-57
2021/05/25 06:46:39;;;;;;;9.65;5.13;;;;;;;;;;4925278;29;20052;-60
2021/05/25 06:49:06;;;;;;;9.40;4.57;;;;;;;;;;4926851;29;20277;-58
2021/05/25 06:51:35;;;;;;;8.63;4.38;;;;;;;;;;4907233;29;20043;-58
2021/05/25 06:54:03;;;;;;;;;;;;;;;;;;4911140;29;20040;-58
2021/05/25 06:56:30;;;;;;;;;;;;;;;;;;4932017;28;19922;-59
2021/05/25 06:58:55;;;;;;;9.75;4.85;;;;;;;;;;4908378;29;19968;-59
2021/05/25 07:01:21;;;;;;;11.82;4.68;;;;;;;;;;4917731;29;20045;-55
2021/05/25 07:03:50;;;;;;;13.00;5.20;;;;;;;;;;4891091;29;20079;-59
2021/05/25 07:06:17;;;;;;;11.30;5.53;;;;;;;;;;4890743;29;20052;-59
2021/05/25 07:08:43;;;;;;;11.75;5.57;;;;;;;;;;4907389;29;20048;-59
2021/05/25 07:11:13;;;;;;;15.00;7.22;;;;;;;;;;4904628;29;20091;-59
2021/05/25 07:13:39;;;;;;;14.95;8.13;;;;;;;;;;4909101;29;20044;-59
2021/05/25 07:16:05;;;;;;;10.43;5.35;;;;;;;;;;4908514;29;20052;-60
2021/05/25 07:18:31;;;;;;;9.68;5.65;;;;;;;;;;4917251;29;20036;-57
2021/05/25 07:20:57;;;;;;;9.85;4.70;;;;;;;;;;4914571;29;20103;-59
2021/05/25 07:23:24;;;;;;;13.65;4.60;;;;;;;;;;4905206;29;20055;-59
2021/05/25 07:25:50;;;;;;;10.02;4.65;;;;;;;;;;4902543;29;20052;-60
2021/05/25 07:28:17;;;;;;;7.15;4.32;;;;;;;;;;4901186;29;20046;-59
2021/05/25 07:30:46;;;;;;;8.32;4.40;;;;;;;;;;4926697;29;20175;-58
2021/05/25 07:33:12;;;;;;;8.45;4.03;;;;;;;;;;4902352;29;20088;-58
2021/05/25 07:35:38;;;;;;;9.63;4.05;;;;;;;;;;4905463;29;20059;-58
2021/05/25 07:38:04;;;;;;;6.75;3.90;;;;;;;;;;4916660;29;20052;-58
2021/05/25 07:40:35;;;;;;;7.75;3.60;;;;;;;;;;4902053;29;20048;-59
2021/05/25 07:43:01;;;;;;;9.93;3.88;;;;;;;;;;4888158;29;20100;-59
2021/05/25 07:45:33;;;;;;;6.72;3.53;;;;;;;;;;4921754;29;20059;-58
2021/05/25 07:48:02;;;;;;;8.25;3.80;;;;;;;;;;4906345;29;20059;-54
2021/05/25 07:50:29;;;;;;;;;;;;;;;;;;4909740;29;20044;-59
2021/05/25 07:52:55;;;;;;;8.60;4.25;;;;;;;;;;4904974;29;19931;-58
2021/05/25 07:55:23;;;;;;;12.50;4.38;;;;;;;;;;4909723;29;20174;-58
2021/05/25 07:57:50;;;;;;;12.65;4.68;;;;;;;;;;4890803;29;20135;-59
2021/05/25 08:00:16;;;;;;;11.25;4.28;;;;;;;;;;4903307;29;20048;-57
2021/05/25 08:02:43;;;;;;;7.65;3.97;;;;;;;;;;4917897;29;20047;-59
2021/05/25 08:05:10;;;;;;;7.68;3.67;;;;;;;;;;4906286;29;20043;-59
2021/05/25 08:07:36;;;;;;;8.93;3.72;;;;;;;;;;4910809;29;20044;-57
2021/05/25 08:10:04;;;;;;;7.63;4.07;;;;;;;;;;4905331;29;20066;-57
2021/05/25 08:12:30;;;;;;;8.77;3.13;;;;;;;;;;4909273;29;20039;-57
2021/05/25 08:14:59;;;;;;;9.40;2.90;;;;;;;;;;4918342;29;20096;-59
2021/05/25 08:17:35;;;;;;;6.15;2.83;;;;;;;;;;4941543;29;20035;-58
2021/05/25 08:20:14;;;;;;;10.55;2.22;;;;;;;;;;4903438;29;20058;-59
2021/05/25 08:22:40;;;;;;;3.97;1.83;;;;;;;;;;4908039;29;20072;-58
2021/05/25 08:25:08;;;;;;;4.72;2.08;;;;;;;;;;4903762;29;20060;-57
2021/05/25 08:27:34;;;;;;;8.50;2.47;;;;;;;;;;4890300;29;20049;-59
2021/05/25 08:30:02;;;;;;;10.32;2.00;;;;;;;;;;4895213;29;20040;-55
2021/05/25 08:32:29;;;;;;;9.57;2.97;;;;;;;;;;4897525;29;20058;-60
2021/05/25 08:34:55;;;;;;;9.00;3.05;;;;;;;;;;4909105;29;20067;-59
2021/05/25 08:37:21;;;;;;;6.60;2.28;;;;;;;;;;4902479;29;20055;-60
2021/05/25 08:39:47;;;;;;;4.07;1.70;;;;;;;;;;4924638;28;20153;-58
2021/05/25 08:42:13;;;;;;;8.07;2.03;;;;;;;;;;4902999;29;20059;-56
2021/05/25 08:44:39;;;;;;;4.05;1.80;;;;;;;;;;4908430;29;20108;-61
2021/05/25 08:47:07;;;;;;;7.15;1.92;;;;;;;;;;4922826;29;20068;-59
2021/05/25 08:49:35;;;;;;;3.23;1.30;;;;;;;;;;4924032;29;20052;-58
2021/05/25 08:52:03;;;;;;;2.20;0.70;;;;;;;;;;4908002;29;20050;-59
2021/05/25 08:54:30;;;;;;;3.05;0.80;;;;;;;;;;4871158;29;20052;-59
2021/05/25 08:57:05;;;;;;;3.15;0.82;;;;;;;;;;4868382;29;20137;-58
2021/05/25 08:59:41;;;;;;;1.75;0.60;;;;;;;;;;4887580;29;20056;-59
2021/05/25 09:02:15;;;;;;;3.83;0.80;;;;;;;;;;4889314;29;20036;-59
2021/05/25 09:04:57;;;;;;;1.42;0.50;;;;;;;;;;4885999;29;20077;-59
2021/05/25 09:07:35;;;;;;;2.75;0.68;;;;;;;;;;4877196;29;20045;-57
2021/05/25 09:10:01;;;;;;;7.77;0.80;;;;;;;;;;4898387;29;20116;-60
2021/05/25 09:12:32;;;;;;;3.25;0.80;;;;;;;;;;4893746;29;20286;-61
2021/05/25 09:14:59;;;;;;;3.90;0.57;;;;;;;;;;4908787;29;20031;-61
2021/05/25 09:17:26;;;;;;;4.07;0.80;;;;;;;;;;4923787;29;20056;-58
2021/05/25 09:19:54;;;;;;;1.17;0.70;;;;;;;;;;4912521;29;20043;-57
2021/05/25 09:22:31;;;;;;;2.60;0.80;;;;;;;;;;4894502;29;20048;-59
2021/05/25 09:24:58;;;;;;;1.70;0.80;;;;;;;;;;4911871;29;20055;-59
2021/05/25 09:27:28;;;;;;;1.90;0.77;;;;;;;;;;4906982;29;20040;-60
2021/05/25 09:30:08;;;;;;;3.15;0.73;;;;;;;;;;4910707;29;20038;-57
2021/05/25 09:32:38;;;;;;;3.40;1.00;;;;;;;;;;4907222;29;20084;-60
2021/05/25 09:35:05;;;;;;;1.98;0.82;;;;;;;;;;4910994;29;20040;-59
2021/05/25 09:37:31;;;;;;;3.92;1.10;;;;;;;;;;4907291;29;20048;-59
2021/05/25 09:39:57;;;;;;;2.53;1.15;;;;;;;;;;4909651;29;20100;-59
2021/05/25 09:42:30;;;;;;;6.47;1.30;;;;;;;;;;4907182;29;20102;-60
2021/05/25 09:44:59;;;;;;;8.90;1.60;;;;;;;;;;4908622;29;20032;-61
2021/05/25 09:47:33;;;;;;;3.63;1.25;;;;;;;;;;4907843;29;20123;-59
2021/05/25 09:50:00;;;;;;;3.63;1.20;;;;;;;;;;4926068;29;20047;-59
2021/05/25 09:52:27;;;;;;;7.07;1.70;;;;;;;;;;4910580;29;20075;-60
2021/05/25 09:55:04;;;;;;;8.98;1.50;;;;;;;;;;4909006;29;20058;-60
2021/05/25 09:57:40;;;;;;;4.95;1.60;;;;;;;;;;4926668;29;20056;-59
2021/05/25 10:00:22;;;;;;;9.98;2.00;;;;;;;;;;4909731;29;20039;-58
2021/05/25 10:02:48;;;;;;;3.85;1.77;;;;;;;;;;4908247;29;20044;-59
2021/05/25 10:05:15;;;;;;;9.30;2.05;;;;;;;;;;4921852;29;20032;-59
2021/05/25 10:07:42;;;;;;;9.15;1.98;;;;;;;;;;4909131;29;20040;-61
2021/05/25 10:10:08;;;;;;;4.97;2.17;;;;;;;;;;4906461;28;20032;-60
2021/05/25 10:12:36;;;;;;;11.43;2.88;;;;;;;;;;4891848;29;20067;-60
2021/05/25 10:15:05;;;;;;;9.10;2.60;;;;;;;;;;4915611;29;20055;-61
2021/05/25 10:17:43;;;;;;;6.53;2.03;;;;;;;;;;4909665;29;20059;-61
2021/05/25 10:20:10;;;;;;;3.97;1.67;;;;;;;;;;4905356;29;20066;-60
2021/05/25 10:22:38;;;;;;;4.65;1.52;;;;;;;;;;4925973;29;20092;-60
2021/05/25 10:25:05;;;;;;;7.82;2.05;;;;;;;;;;4911948;29;20044;-59
2021/05/25 10:27:31;;;;;;;10.32;3.22;;;;;;;;;;4891290;29;20044;-58
2021/05/25 10:29:58;;;;;;;7.40;2.05;;;;;;;;;;4895892;29;20099;-59
2021/05/25 10:32:25;;;;;;;8.63;2.13;;;;;;;;;;4910357;29;20180;-60
2021/05/25 10:34:53;;;;;;;8.15;1.85;;;;;;;;;;4912811;29;20043;-61
2021/05/25 10:37:19;;;;;;;7.40;2.07;;;;;;;;;;4928113;29;20065;-60
2021/05/25 10:39:47;;;;;;;8.10;2.13;;;;;;;;;;4921928;29;20055;-60
2021/05/25 10:42:36;;;;;;;9.13;2.47;;;;;;;;;;4925726;29;20040;-59
2021/05/25 10:45:13;;;;;;;9.07;2.47;;;;;;;;;;4907268;28;20043;-60
2021/05/25 10:47:49;;;;;;;6.32;2.00;;;;;;;;;;4924273;29;20046;-61
2021/05/25 10:50:25;;;;;;;10.00;2.10;;;;;;;;;;4925546;28;20044;-57
2021/05/25 10:53:08;;;;;;;6.93;1.63;;;;;;;;;;4946045;28;20058;-59
2021/05/25 10:55:36;;;;;;;7.38;1.65;;;;;;;;;;4956359;28;20052;-58
2021/05/25 10:58:28;;;;;;;8.13;1.80;;;;;;;;;;4947289;28;20063;-56
2021/05/25 11:00:55;;;;;;;7.72;1.58;;;;;;;;;;4953237;28;20095;-56
2021/05/25 11:03:22;;;;;;;5.40;1.67;;;;;;;;;;4927970;28;20040;-58
2021/05/25 11:05:50;;;;;;;4.95;1.70;;;;;;;;;;4924638;28;20031;-57
2021/05/25 11:08:37;;;;;;;4.57;1.33;;;;;;;;;;4929429;28;20150;-57
2021/05/25 11:11:26;;;;;;;5.55;1.25;;;;;;;;;;4942493;28;20047;-57
2021/05/25 11:13:53;;;;;;;4.70;1.10;;;;;;;;;;4928985;29;20103;-58
2021/05/25 11:16:26;;;;;;;6.80;2.08;;;;;;;;;;4926313;29;20058;-54
2021/05/25 11:18:57;;;;;;;9.05;2.88;;;;;;;;;;4936112;29;20044;-58
2021/05/25 11:21:44;;;;;;;6.15;1.50;;;;;;;;;;4923299;28;20158;-59
2021/05/25 11:24:26;;;;;;;5.63;1.17;;;;;;;;;;4928906;29;20098;-58
2021/05/25 11:27:04;;;;;;;3.47;1.10;;;;;;;;;;4944029;28;20046;-58
2021/05/25 11:29:31;;;;;;;8.15;1.35;;;;;;;;;;4927020;29;20055;-59
2021/05/25 11:32:01;;;;;;;4.07;1.33;;;;;;;;;;4940722;28;20039;-59
2021/05/25 11:34:28;;;;;;;4.05;1.20;;;;;;;;;;4928121;29;20055;-59
2021/05/25 11:36:59;;;;;;;7.72;1.20;;;;;;;;;;4925439;28;20154;-59
2021/05/25 11:39:25;;;;;;;3.85;1.25;;;;;;;;;;4925924;28;20288;-59
2021/05/25 11:41:52;;;;;;;4.50;1.10;;;;;;;;;;4924953;28;20058;-60
2021/05/25 11:44:21;;;;;;;5.10;1.00;;;;;;;;;;4913217;29;20047;-60
2021/05/25 11:46:48;;;;;;;5.22;1.00;;;;;;;;;;4908609;29;20050;-60
2021/05/25 11:49:15;;;;;;;6.93;1.23;;;;;;;;;;4905229;29;20048;-58
2021/05/25 11:51:41;;;;;;;8.93;1.08;;;;;;;;;;4925584;29;20040;-59
2021/05/25 11:54:08;;;;;;;3.72;0.98;;;;;;;;;;4922456;29;20087;-58
2021/05/25 11:56:34;;;;;;;6.65;1.05;;;;;;;;;;4910242;29;20050;-58
2021/05/25 11:59:00;;;;;;;4.05;1.13;;;;;;;;;;4905100;29;20043;-58
2021/05/25 12:01:39;;;;;;;5.65;0.90;;;;;;;;;;4911026;28;20039;-56
2021/05/25 12:04:05;;;;;;;;;;;;;;;;;;4905536;29;20064;-59
2021/05/25 12:06:31;;;;;;;1.65;0.77;;;;;;;;;;4908749;29;19938;-60
2021/05/25 12:09:05;;;;;;;3.47;0.80;;;;;;;;;;4924154;29;20062;-59
2021/05/25 12:11:39;;;;;;;6.35;0.80;;;;;;;;;;4909409;29;20130;-56
2021/05/25 12:14:05;;;;;;;8.25;1.00;;;;;;;;;;4908807;29;20062;-59
2021/05/25 12:16:32;;;;;;;2.05;0.73;;;;;;;;;;4891142;29;20047;-58
2021/05/25 12:18:59;;;;;;;2.58;1.00;;;;;;;;;;4893402;29;20056;-59
2021/05/25 12:21:26;;;;;;;1.42;0.52;;;;;;;;;;4926025;29;20048;-60
2021/05/25 12:23:52;;;;;;;4.53;0.90;;;;;;;;;;4905114;29;20066;-58
2021/05/25 12:26:19;;;;;;;1.88;0.73;;;;;;;;;;4916882;29;20047;-59
2021/05/25 12:28:47;;;;;;;3.75;0.77;;;;;;;;;;4905789;29;20040;-59
2021/05/25 12:31:13;;;;;;;8.53;3.00;;;;;;;;;;4884296;29;20041;-58
2021/05/25 12:33:44;;;;;;;1.98;0.90;;;;;;;;;;4900926;29;20297;-58
2021/05/25 12:36:19;;;;;;;2.50;0.70;;;;;;;;;;4922825;29;20048;-59
2021/05/25 12:39:04;;;;;;;3.00;0.95;;;;;;;;;;4889495;29;20041;-60
2021/05/25 12:41:37;;;;;;;2.58;0.50;;;;;;;;;;4920315;29;20052;-58
2021/05/25 12:44:07;;;;;;;4.10;0.90;;;;;;;;;;4926311;29;20051;-60
2021/05/25 12:46:36;;;;;;;3.15;0.70;;;;;;;;;;4916977;29;20059;-56
2021/05/25 12:49:02;;;;;;;5.70;0.85;;;;;;;;;;4906361;29;20063;-58
2021/05/25 12:51:29;;;;;;;6.18;0.88;;;;;;;;;;4921961;29;20031;-59
2021/05/25 12:53:57;;;;;;;3.88;0.70;;;;;;;;;;4908527;29;20048;-61
2021/05/25 12:56:24;;;;;;;2.95;0.70;;;;;;;;;;4905936;29;20096;-59
2021/05/25 12:58:51;;;;;;;3.55;0.98;;;;;;;;;;4908249;29;20063;-62
2021/05/25 13:01:17;;;;;;;1.80;0.70;;;;;;;;;;4904814;29;20044;-61
2021/05/25 13:04:06;;;;;;;4.47;0.75;;;;;;;;;;4899601;29;20048;-61
2021/05/25 13:09:40;;;;;;;3.67;0.85;;;;;;;;;;4896386;29;20196;-58
2021/05/25 13:12:09;;;;;;;0.90;0.52;;;;;;;;;;4922687;29;20059;-61
2021/05/25 13:14:36;;;;;;;2.72;0.93;;;;;;;;;;4907418;29;20050;-61
2021/05/25 13:17:03;;;;;;;2.50;0.98;;;;;;;;;;4904473;29;20114;-60
2021/05/25 13:19:36;;;;;;;4.07;0.90;;;;;;;;;;4909031;29;20036;-57
2021/05/25 13:22:03;;;;;;;5.25;1.05;;;;;;;;;;4905527;29;20048;-60
2021/05/25 13:24:29;;;;;;;2.67;0.93;;;;;;;;;;4924094;29;20055;-60
2021/05/25 13:26:56;;;;;;;6.57;0.75;;;;;;;;;;4910611;29;20044;-60
2021/05/25 13:29:22;;;;;;;3.80;0.80;;;;;;;;;;4882370;29;20033;-60
2021/05/25 13:31:50;;;;;;;5.25;1.02;;;;;;;;;;4899084;29;20054;-58
2021/05/25 13:34:18;;;;;;;2.83;1.10;;;;;;;;;;4908880;29;20028;-60
2021/05/25 13:36:45;;;;;;;3.63;0.95;;;;;;;;;;4905558;29;20068;-59
2021/05/25 13:39:12;;;;;;;4.68;0.80;;;;;;;;;;4907370;29;20059;-60
2021/05/25 13:41:38;;;;;;;2.35;0.80;;;;;;;;;;4903839;29;20051;-60
2021/05/25 13:44:06;;;;;;;5.85;0.90;;;;;;;;;;4907862;29;20048;-61
2021/05/25 13:46:33;;;;;;;3.15;1.30;;;;;;;;;;4909543;29;20036;-60
2021/05/25 13:48:59;;;;;;;3.88;0.93;;;;;;;;;;4896401;29;20103;-60
2021/05/25 13:51:27;;;;;;;6.00;1.15;;;;;;;;;;4923051;29;20067;-62
2021/05/25 13:53:53;;;;;;;4.93;1.30;;;;;;;;;;4906418;29;20050;-60
2021/05/25 13:56:21;;;;;;;2.83;1.30;;;;;;;;;;4911249;29;20052;-61
2021/05/25 13:58:48;;;;;;;1.75;0.60;;;;;;;;;;4909350;29;20036;-61
2021/05/25 14:01:29;;;;;;;4.10;0.82;;;;;;;;;;4892086;29;20052;-60
2021/05/25 14:03:56;;;;;;;2.47;0.80;;;;;;;;;;4912790;29;20065;-62
2021/05/25 14:06:22;;;;;;;3.88;0.88;;;;;;;;;;4922695;29;20087;-62
2021/05/25 14:08:48;;;;;;;3.30;1.00;;;;;;;;;;4904244;29;20080;-62
2021/05/25 14:11:14;;;;;;;3.92;0.90;;;;;;;;;;4907542;29;20065;-62
2021/05/25 14:13:41;;;;;;;9.30;1.08;;;;;;;;;;4918748;29;20043;-61
2021/05/25 14:16:07;;;;;;;3.35;0.80;;;;;;;;;;4929292;29;20042;-61
2021/05/25 14:18:34;;;;;;;4.80;1.00;;;;;;;;;;4919714;29;20048;-61
2021/05/25 14:21:00;;;;;;;3.55;1.20;;;;;;;;;;4926681;29;20117;-61
2021/05/25 14:23:26;;;;;;;2.00;0.80;;;;;;;;;;4922469;29;20048;-61
2021/05/25 14:25:52;;;;;;;2.40;0.82;;;;;;;;;;4904531;29;20048;-62
2021/05/25 14:28:18;;;;;;;3.22;0.88;;;;;;;;;;4891776;29;20044;-62
2021/05/25 14:30:44;;;;;;;3.72;0.90;;;;;;;;;;4909472;29;20064;-61
2021/05/25 14:33:12;;;;;;;2.60;1.10;;;;;;;;;;4910246;29;20052;-61
2021/05/25 14:35:39;;;;;;;5.37;0.93;;;;;;;;;;4908331;29;20047;-62
2021/05/25 14:38:05;;;;;;;2.67;0.80;;;;;;;;;;4910340;29;20152;-62
2021/05/25 14:40:32;;;;;;;4.93;0.85;;;;;;;;;;4918065;29;20062;-60
2021/05/25 14:42:59;;;;;;;3.33;0.98;;;;;;;;;;4910789;29;20062;-61
2021/05/25 14:45:26;;;;;;;2.53;1.02;;;;;;;;;;4906569;29;20054;-62
2021/05/25 14:47:53;;;;;;;3.75;0.90;;;;;;;;;;4910399;29;20123;-61
2021/05/25 14:50:24;;;;;;;5.75;0.85;;;;;;;;;;4906720;29;20040;-60
2021/05/25 14:52:52;;;;;;;5.43;1.00;;;;;;;;;;4922768;29;20054;-62